sensor_id;sensor_type;location;lat;lon;timestamp;pressure;altitude;pressure_sealevel;temperature;humidity
47716;BME280;33476;50.984;3.538;2022-12-29T00:01:29;100053.72;;;13.07;77.77
47716;BME280;33476;50.984;3.538;2022-12-29T00:03:54;100088.22;;;13.14;77.41
47716;BME280;33476;50.984;3.538;2022-12-29T00:06:19;100053.41;;;13.12;77.33
47716;BME280;33476;50.984;3.538;2022-12-29T00:08:45;100054.88;;;13.16;77.51
47716;BME280;33476;50.984;3.538;2022-12-29T00:11:21;100047.94;;;13.15;77.04
47716;BME280;33476;50.984;3.538;2022-12-29T00:13:47;100031.69;;;13.23;76.66
47716;BME280;33476;50.984;3.538;2022-12-29T00:16:32;100039.56;;;13.23;76.47
47716;BME280;33476;50.984;3.538;2022-12-29T00:18:59;100051.63;;;13.25;76.34
47716;BME280;33476;50.984;3.538;2022-12-29T00:21:25;100040.19;;;13.26;76.66
47716;BME280;33476;50.984;3.538;2022-12-29T00:24:13;100052.47;;;13.26;76.38
47716;BME280;33476;50.984;3.538;2022-12-29T00:29:47;100043.66;;;13.27;75.91
47716;BME280;33476;50.984;3.538;2022-12-29T00:32:32;100059.16;;;13.30;75.34
47716;BME280;33476;50.984;3.538;2022-12-29T00:35:39;100051.84;;;13.22;75.60
47716;BME280;33476;50.984;3.538;2022-12-29T00:38:10;100052.13;;;13.30;75.03
47716;BME280;33476;50.984;3.538;2022-12-29T00:40:54;100031.25;;;13.29;74.96
47716;BME280;33476;50.984;3.538;2022-12-29T00:43:38;100042.47;;;13.31;75.12
47716;BME280;33476;50.984;3.538;2022-12-29T00:46:22;100046.75;;;13.32;74.64
47716;BME280;33476;50.984;3.538;2022-12-29T00:48:47;100083.41;;;13.33;74.76
47716;BME280;33476;50.984;3.538;2022-12-29T00:51:31;100036.78;;;13.37;74.59
47716;BME280;33476;50.984;3.538;2022-12-29T00:53:56;100041.22;;;13.36;74.49
47716;BME280;33476;50.984;3.538;2022-12-29T00:56:21;100046.69;;;13.33;74.83
47716;BME280;33476;50.984;3.538;2022-12-29T00:58:47;100055.28;;;13.35;74.80
47716;BME280;33476;50.984;3.538;2022-12-29T01:01:12;100047.63;;;13.32;74.64
47716;BME280;33476;50.984;3.538;2022-12-29T01:03:38;100047.50;;;13.34;74.42
47716;BME280;33476;50.984;3.538;2022-12-29T01:06:05;100042.28;;;13.34;74.52
47716;BME280;33476;50.984;3.538;2022-12-29T01:08:31;100046.69;;;13.33;74.46
47716;BME280;33476;50.984;3.538;2022-12-29T01:11:05;100020.78;;;13.29;74.45
47716;BME280;33476;50.984;3.538;2022-12-29T01:13:31;100034.53;;;13.32;74.47
47716;BME280;33476;50.984;3.538;2022-12-29T01:15:56;100030.72;;;13.36;74.14
47716;BME280;33476;50.984;3.538;2022-12-29T01:18:22;100054.31;;;13.36;73.98
47716;BME280;33476;50.984;3.538;2022-12-29T01:20:48;100043.09;;;13.34;73.56
47716;BME280;33476;50.984;3.538;2022-12-29T01:23:14;100032.09;;;13.29;73.84
47716;BME280;33476;50.984;3.538;2022-12-29T01:25:40;100028.41;;;13.32;73.54
47716;BME280;33476;50.984;3.538;2022-12-29T01:28:05;100035.00;;;13.37;73.49
47716;BME280;33476;50.984;3.538;2022-12-29T01:30:32;100026.66;;;13.32;73.82
47716;BME280;33476;50.984;3.538;2022-12-29T01:32:57;100033.88;;;13.29;73.67
47716;BME280;33476;50.984;3.538;2022-12-29T01:35:23;100024.13;;;13.31;73.73
47716;BME280;33476;50.984;3.538;2022-12-29T01:37:48;100046.88;;;13.30;73.51
47716;BME280;33476;50.984;3.538;2022-12-29T01:40:13;100033.16;;;13.27;73.70
47716;BME280;33476;50.984;3.538;2022-12-29T01:42:39;100026.38;;;13.24;73.37
47716;BME280;33476;50.984;3.538;2022-12-29T01:45:15;100027.28;;;13.23;73.31
47716;BME280;33476;50.984;3.538;2022-12-29T01:47:44;100040.91;;;13.28;73.16
47716;BME280;33476;50.984;3.538;2022-12-29T01:50:32;100051.63;;;13.25;72.88
47716;BME280;33476;50.984;3.538;2022-12-29T01:53:15;100036.06;;;13.35;72.69
47716;BME280;33476;50.984;3.538;2022-12-29T01:55:50;100047.72;;;13.31;72.54
47716;BME280;33476;50.984;3.538;2022-12-29T01:58:20;100055.59;;;13.31;72.20
47716;BME280;33476;50.984;3.538;2022-12-29T02:00:47;100048.66;;;13.30;72.69
47716;BME280;33476;50.984;3.538;2022-12-29T02:03:12;100029.69;;;13.26;72.62
47716;BME280;33476;50.984;3.538;2022-12-29T02:05:52;100032.22;;;13.28;72.59
47716;BME280;33476;50.984;3.538;2022-12-29T02:08:25;100037.56;;;13.26;72.25
47716;BME280;33476;50.984;3.538;2022-12-29T02:10:51;100035.66;;;13.28;72.74
47716;BME280;33476;50.984;3.538;2022-12-29T02:13:17;100040.81;;;13.30;72.64
47716;BME280;33476;50.984;3.538;2022-12-29T02:16:00;100041.97;;;13.26;72.40
47716;BME280;33476;50.984;3.538;2022-12-29T02:18:41;100039.84;;;13.31;72.05
47716;BME280;33476;50.984;3.538;2022-12-29T02:38:12;100009.25;;;13.18;72.00
47716;BME280;33476;50.984;3.538;2022-12-29T02:40:46;100005.69;;;13.19;72.12
47716;BME280;33476;50.984;3.538;2022-12-29T02:45:59;100008.59;;;13.15;71.68
47716;BME280;33476;50.984;3.538;2022-12-29T02:48:40;100006.31;;;13.10;71.81
47716;BME280;33476;50.984;3.538;2022-12-29T02:51:20;100020.28;;;13.11;71.04
47716;BME280;33476;50.984;3.538;2022-12-29T02:53:49;100018.50;;;13.11;70.87
47716;BME280;33476;50.984;3.538;2022-12-29T02:56:34;100020.28;;;13.11;70.55
47716;BME280;33476;50.984;3.538;2022-12-29T02:58:59;100027.19;;;13.12;70.29
47716;BME280;33476;50.984;3.538;2022-12-29T03:02:03;100037.38;;;13.04;69.86
47716;BME280;33476;50.984;3.538;2022-12-29T03:13:25;100041.78;;;13.03;68.76
47716;BME280;33476;50.984;3.538;2022-12-29T03:16:34;100055.72;;;13.04;68.63
47716;BME280;33476;50.984;3.538;2022-12-29T03:19:05;100033.91;;;13.03;68.27
47716;BME280;33476;50.984;3.538;2022-12-29T03:24:29;100029.75;;;13.01;68.07
47716;BME280;33476;50.984;3.538;2022-12-29T03:26:58;100030.56;;;13.01;67.87
47716;BME280;33476;50.984;3.538;2022-12-29T03:29:25;100034.16;;;13.00;67.76
47716;BME280;33476;50.984;3.538;2022-12-29T03:31:53;100044.00;;;12.97;67.91
47716;BME280;33476;50.984;3.538;2022-12-29T03:34:20;100044.94;;;12.96;67.88
47716;BME280;33476;50.984;3.538;2022-12-29T03:36:53;100045.28;;;12.91;67.78
47716;BME280;33476;50.984;3.538;2022-12-29T03:39:22;100059.53;;;12.87;67.38
47716;BME280;33476;50.984;3.538;2022-12-29T03:41:51;100047.59;;;12.83;67.53
47716;BME280;33476;50.984;3.538;2022-12-29T03:44:20;100060.88;;;12.80;67.08
47716;BME280;33476;50.984;3.538;2022-12-29T03:46:46;100051.47;;;12.77;66.95
47716;BME280;33476;50.984;3.538;2022-12-29T03:49:11;100067.31;;;12.76;66.63
47716;BME280;33476;50.984;3.538;2022-12-29T03:51:36;100065.63;;;12.75;66.81
47716;BME280;33476;50.984;3.538;2022-12-29T03:54:02;100065.63;;;12.75;66.46
47716;BME280;33476;50.984;3.538;2022-12-29T03:56:27;100057.84;;;12.73;66.07
47716;BME280;33476;50.984;3.538;2022-12-29T03:58:53;100058.19;;;12.69;66.46
47716;BME280;33476;50.984;3.538;2022-12-29T04:01:18;100050.31;;;12.69;66.17
47716;BME280;33476;50.984;3.538;2022-12-29T04:03:43;100061.53;;;12.71;65.99
47716;BME280;33476;50.984;3.538;2022-12-29T04:06:09;100065.00;;;12.71;65.91
47716;BME280;33476;50.984;3.538;2022-12-29T04:08:34;100060.81;;;12.69;65.83
47716;BME280;33476;50.984;3.538;2022-12-29T04:10:59;100064.75;;;12.74;65.66
47716;BME280;33476;50.984;3.538;2022-12-29T04:13:25;100065.63;;;12.75;65.62
47716;BME280;33476;50.984;3.538;2022-12-29T04:15:50;100062.25;;;12.73;65.46
47716;BME280;33476;50.984;3.538;2022-12-29T04:18:15;100057.84;;;12.73;65.01
47716;BME280;33476;50.984;3.538;2022-12-29T04:20:41;100076.94;;;12.75;64.85
47716;BME280;33476;50.984;3.538;2022-12-29T04:23:24;100062.13;;;12.74;65.20
47716;BME280;33476;50.984;3.538;2022-12-29T04:25:50;100073.69;;;12.72;64.97
47716;BME280;33476;50.984;3.538;2022-12-29T04:28:16;100057.13;;;12.71;64.60
47716;BME280;33476;50.984;3.538;2022-12-29T04:30:42;100063.31;;;12.70;64.79
47716;BME280;33476;50.984;3.538;2022-12-29T04:33:08;100057.53;;;12.65;64.39
47716;BME280;33476;50.984;3.538;2022-12-29T04:35:33;100047.28;;;12.62;64.44
47716;BME280;33476;50.984;3.538;2022-12-29T04:37:59;100065.22;;;12.68;64.03
47716;BME280;33476;50.984;3.538;2022-12-29T04:40:24;100078.31;;;12.68;64.04
47716;BME280;33476;50.984;3.538;2022-12-29T04:42:50;100078.19;;;12.70;63.77
47716;BME280;33476;50.984;3.538;2022-12-29T04:45:15;100082.59;;;12.69;63.72
47716;BME280;33476;50.984;3.538;2022-12-29T04:47:41;100076.72;;;12.65;64.09
47716;BME280;33476;50.984;3.538;2022-12-29T04:50:07;100085.53;;;12.64;63.76
47716;BME280;33476;50.984;3.538;2022-12-29T04:52:32;100093.50;;;12.63;63.58
47716;BME280;33476;50.984;3.538;2022-12-29T04:54:58;100091.72;;;12.63;63.98
47716;BME280;33476;50.984;3.538;2022-12-29T04:57:23;100087.53;;;12.61;63.95
47716;BME280;33476;50.984;3.538;2022-12-29T04:59:48;100092.03;;;12.59;64.23
47716;BME280;33476;50.984;3.538;2022-12-29T05:02:15;100090.16;;;12.61;63.91
47716;BME280;33476;50.984;3.538;2022-12-29T05:04:41;100079.44;;;12.64;63.99
47716;BME280;33476;50.984;3.538;2022-12-29T05:07:06;100097.06;;;12.62;63.81
47716;BME280;33476;50.984;3.538;2022-12-29T05:09:31;100093.38;;;12.64;63.71
47716;BME280;33476;50.984;3.538;2022-12-29T05:11:57;100100.41;;;12.64;63.45
47716;BME280;33476;50.984;3.538;2022-12-29T05:14:22;100096.00;;;12.64;63.99
47716;BME280;33476;50.984;3.538;2022-12-29T05:16:47;100087.31;;;12.64;63.84
47716;BME280;33476;50.984;3.538;2022-12-29T05:19:13;100089.91;;;12.64;63.75
47716;BME280;33476;50.984;3.538;2022-12-29T05:21:38;100084.06;;;12.60;63.79
47716;BME280;33476;50.984;3.538;2022-12-29T05:24:04;100083.34;;;12.58;64.13
47716;BME280;33476;50.984;3.538;2022-12-29T05:26:29;100089.00;;;12.52;64.23
47716;BME280;33476;50.984;3.538;2022-12-29T05:28:54;100096.19;;;12.49;64.07
47716;BME280;33476;50.984;3.538;2022-12-29T05:31:20;100095.28;;;12.50;63.86
47716;BME280;33476;50.984;3.538;2022-12-29T05:33:45;100093.50;;;12.50;64.00
47716;BME280;33476;50.984;3.538;2022-12-29T05:36:11;100107.44;;;12.51;63.77
47716;BME280;33476;50.984;3.538;2022-12-29T05:38:36;100106.38;;;12.53;63.71
47716;BME280;33476;50.984;3.538;2022-12-29T05:41:02;100103.53;;;12.56;63.88
47716;BME280;33476;50.984;3.538;2022-12-29T05:43:27;100115.91;;;12.54;63.72
47716;BME280;33476;50.984;3.538;2022-12-29T05:45:52;100118.41;;;12.56;63.52
47716;BME280;33476;50.984;3.538;2022-12-29T05:48:19;100116.75;;;12.55;63.47
47716;BME280;33476;50.984;3.538;2022-12-29T05:50:48;100125.56;;;12.54;63.23
47716;BME280;33476;50.984;3.538;2022-12-29T05:53:14;100129.56;;;12.59;63.51
47716;BME280;33476;50.984;3.538;2022-12-29T05:55:40;100146.50;;;12.54;63.50
47716;BME280;33476;50.984;3.538;2022-12-29T05:58:05;100152.78;;;12.51;63.26
47716;BME280;33476;50.984;3.538;2022-12-29T06:00:31;100157.38;;;12.48;62.94
47716;BME280;33476;50.984;3.538;2022-12-29T06:02:56;100159.06;;;12.49;62.66
47716;BME280;33476;50.984;3.538;2022-12-29T06:05:21;100158.44;;;12.45;62.23
47716;BME280;33476;50.984;3.538;2022-12-29T06:07:46;100151.84;;;12.52;62.41
47716;BME280;33476;50.984;3.538;2022-12-29T06:10:12;100157.09;;;12.52;61.69
47716;BME280;33476;50.984;3.538;2022-12-29T06:12:37;100152.47;;;12.56;61.63
47716;BME280;33476;50.984;3.538;2022-12-29T06:15:03;100166.22;;;12.59;61.81
47716;BME280;33476;50.984;3.538;2022-12-29T06:17:28;100166.34;;;12.58;61.44
47716;BME280;33476;50.984;3.538;2022-12-29T06:19:54;100171.56;;;12.58;61.34
47716;BME280;33476;50.984;3.538;2022-12-29T06:22:19;100172.59;;;12.55;61.73
47716;BME280;33476;50.984;3.538;2022-12-29T06:24:44;100179.31;;;12.59;62.17
47716;BME280;33476;50.984;3.538;2022-12-29T06:27:09;100174.47;;;12.53;62.42
47716;BME280;33476;50.984;3.538;2022-12-29T06:29:35;100167.56;;;12.52;62.79
47716;BME280;33476;50.984;3.538;2022-12-29T06:32:02;100164.50;;;12.46;63.43
47716;BME280;33476;50.984;3.538;2022-12-29T06:34:28;100175.59;;;12.49;63.30
47716;BME280;33476;50.984;3.538;2022-12-29T06:36:53;100176.56;;;12.48;63.23
47716;BME280;33476;50.984;3.538;2022-12-29T06:39:19;100181.78;;;12.48;63.45
47716;BME280;33476;50.984;3.538;2022-12-29T06:41:44;100175.72;;;12.48;63.09
47716;BME280;33476;50.984;3.538;2022-12-29T06:44:10;100185.25;;;12.49;62.76
47716;BME280;33476;50.984;3.538;2022-12-29T06:46:35;100180.22;;;12.46;62.54
47716;BME280;33476;50.984;3.538;2022-12-29T06:49:00;100182.63;;;12.49;62.20
47716;BME280;33476;50.984;3.538;2022-12-29T06:51:26;100177.22;;;12.52;62.04
47716;BME280;33476;50.984;3.538;2022-12-29T06:53:51;100181.59;;;12.51;62.11
47716;BME280;33476;50.984;3.538;2022-12-29T06:56:16;100176.38;;;12.51;61.83
47716;BME280;33476;50.984;3.538;2022-12-29T06:58:42;100172.91;;;12.51;61.46
47716;BME280;33476;50.984;3.538;2022-12-29T07:01:07;100170.19;;;12.52;61.43
47716;BME280;33476;50.984;3.538;2022-12-29T07:03:34;100172.69;;;12.54;61.32
47716;BME280;33476;50.984;3.538;2022-12-29T07:05:59;100172.41;;;12.58;61.03
47716;BME280;33476;50.984;3.538;2022-12-29T07:08:24;100172.59;;;12.55;61.19
47716;BME280;33476;50.984;3.538;2022-12-29T07:10:50;100169.13;;;12.55;61.01
47716;BME280;33476;50.984;3.538;2022-12-29T07:13:15;100173.44;;;12.56;60.76
47716;BME280;33476;50.984;3.538;2022-12-29T07:15:40;100163.06;;;12.54;61.12
47716;BME280;33476;50.984;3.538;2022-12-29T07:18:06;100179.81;;;12.52;60.77
47716;BME280;33476;50.984;3.538;2022-12-29T07:20:31;100159.72;;;12.52;60.71
47716;BME280;33476;50.984;3.538;2022-12-29T07:22:57;100170.91;;;12.54;60.69
47716;BME280;33476;50.984;3.538;2022-12-29T07:25:23;100161.94;;;12.58;60.42
47716;BME280;33476;50.984;3.538;2022-12-29T07:27:48;100175.75;;;12.60;60.42
47716;BME280;33476;50.984;3.538;2022-12-29T07:30:14;100180.25;;;12.58;60.36
47716;BME280;33476;50.984;3.538;2022-12-29T07:32:39;100192.81;;;12.53;59.95
47716;BME280;33476;50.984;3.538;2022-12-29T07:35:05;100183.06;;;12.55;60.13
47716;BME280;33476;50.984;3.538;2022-12-29T07:37:31;100194.38;;;12.56;60.01
47716;BME280;33476;50.984;3.538;2022-12-29T07:39:56;100207.31;;;12.59;59.76
47716;BME280;33476;50.984;3.538;2022-12-29T07:42:22;100202.13;;;12.57;59.94
47716;BME280;33476;50.984;3.538;2022-12-29T07:44:47;100228.34;;;12.57;59.71
47716;BME280;33476;50.984;3.538;2022-12-29T07:47:12;100203.84;;;12.58;59.90
47716;BME280;33476;50.984;3.538;2022-12-29T07:49:38;100212.53;;;12.59;59.92
47716;BME280;33476;50.984;3.538;2022-12-29T07:52:03;100226.38;;;12.61;60.30
47716;BME280;33476;50.984;3.538;2022-12-29T07:54:28;100208.97;;;12.60;60.57
47716;BME280;33476;50.984;3.538;2022-12-29T07:56:54;100215.16;;;12.59;60.62
47716;BME280;33476;50.984;3.538;2022-12-29T07:59:19;100219.97;;;12.52;60.34
47716;BME280;33476;50.984;3.538;2022-12-29T08:01:45;100225.81;;;12.56;60.37
47716;BME280;33476;50.984;3.538;2022-12-29T08:04:10;100233.56;;;12.57;60.16
47716;BME280;33476;50.984;3.538;2022-12-29T08:06:35;100228.44;;;12.56;60.29
47716;BME280;33476;50.984;3.538;2022-12-29T08:09:03;100233.06;;;12.52;60.11
47716;BME280;33476;50.984;3.538;2022-12-29T08:11:28;100239.53;;;12.47;60.15
47716;BME280;33476;50.984;3.538;2022-12-29T08:13:53;100244.97;;;12.44;60.36
47716;BME280;33476;50.984;3.538;2022-12-29T08:16:19;100246.84;;;12.42;60.35
47716;BME280;33476;50.984;3.538;2022-12-29T08:18:44;100253.00;;;12.41;61.09
47716;BME280;33476;50.984;3.538;2022-12-29T08:21:10;100260.34;;;12.35;61.38
47716;BME280;33476;50.984;3.538;2022-12-29T08:23:35;100292.13;;;12.29;61.75
47716;BME280;33476;50.984;3.538;2022-12-29T08:26:03;100258.59;;;12.22;62.56
47716;BME280;33476;50.984;3.538;2022-12-29T08:28:29;100278.59;;;12.23;62.48
47716;BME280;33476;50.984;3.538;2022-12-29T08:30:58;100284.03;;;12.20;62.89
47716;BME280;33476;50.984;3.538;2022-12-29T08:33:23;100283.56;;;12.27;62.75
47716;BME280;33476;50.984;3.538;2022-12-29T08:35:48;100297.75;;;12.23;63.20
47716;BME280;33476;50.984;3.538;2022-12-29T08:38:14;100309.91;;;12.24;63.13
47716;BME280;33476;50.984;3.538;2022-12-29T08:40:40;100287.22;;;12.25;63.41
47716;BME280;33476;50.984;3.538;2022-12-29T08:43:05;100300.00;;;12.29;63.27
47716;BME280;33476;50.984;3.538;2022-12-29T08:45:31;100299.16;;;12.29;63.38
47716;BME280;33476;50.984;3.538;2022-12-29T08:47:56;100311.41;;;12.28;63.58
47716;BME280;33476;50.984;3.538;2022-12-29T08:50:22;100323.94;;;12.23;63.96
47716;BME280;33476;50.984;3.538;2022-12-29T08:52:47;100347.81;;;12.19;64.35
47716;BME280;33476;50.984;3.538;2022-12-29T08:55:12;100341.63;;;12.20;64.85
47716;BME280;33476;50.984;3.538;2022-12-29T08:57:38;100338.06;;;12.21;65.02
47716;BME280;33476;50.984;3.538;2022-12-29T09:00:04;100350.22;;;12.22;65.16
47716;BME280;33476;50.984;3.538;2022-12-29T09:02:30;100373.25;;;12.17;65.06
47716;BME280;33476;50.984;3.538;2022-12-29T09:04:55;100361.38;;;12.11;65.12
47716;BME280;33476;50.984;3.538;2022-12-29T09:07:22;100356.22;;;12.09;65.47
47716;BME280;33476;50.984;3.538;2022-12-29T09:09:49;100361.25;;;12.13;65.88
47716;BME280;33476;50.984;3.538;2022-12-29T09:12:15;100370.16;;;12.10;66.13
47716;BME280;33476;50.984;3.538;2022-12-29T09:14:41;100375.50;;;12.08;66.77
47716;BME280;33476;50.984;3.538;2022-12-29T09:17:08;100378.38;;;12.04;67.22
47716;BME280;33476;50.984;3.538;2022-12-29T09:19:52;100368.94;;;12.01;67.26
47716;BME280;33476;50.984;3.538;2022-12-29T09:22:17;100382.50;;;11.94;68.02
47716;BME280;33476;50.984;3.538;2022-12-29T09:24:42;100381.66;;;11.93;67.86
47716;BME280;33476;50.984;3.538;2022-12-29T09:27:08;100385.75;;;11.97;67.54
47716;BME280;33476;50.984;3.538;2022-12-29T09:29:33;100404.81;;;11.99;67.72
47716;BME280;33476;50.984;3.538;2022-12-29T09:31:58;100406.44;;;12.02;67.60
47716;BME280;33476;50.984;3.538;2022-12-29T09:34:24;100412.66;;;11.99;67.41
47716;BME280;33476;50.984;3.538;2022-12-29T09:36:49;100401.09;;;12.03;67.33
47716;BME280;33476;50.984;3.538;2022-12-29T09:39:14;100418.28;;;12.07;67.37
47716;BME280;33476;50.984;3.538;2022-12-29T09:44:23;100425.50;;;12.04;67.52
47716;BME280;33476;50.984;3.538;2022-12-29T09:46:53;100428.50;;;12.12;67.41
47716;BME280;33476;50.984;3.538;2022-12-29T09:52:10;100443.06;;;12.16;67.18
47716;BME280;33476;50.984;3.538;2022-12-29T09:54:48;100437.38;;;12.09;67.34
47716;BME280;33476;50.984;3.538;2022-12-29T09:57:21;100445.31;;;12.08;67.38
47716;BME280;33476;50.984;3.538;2022-12-29T09:59:50;100451.41;;;12.08;67.40
47716;BME280;33476;50.984;3.538;2022-12-29T10:02:37;100458.38;;;12.08;67.29
47716;BME280;33476;50.984;3.538;2022-12-29T10:05:04;100470.69;;;12.36;66.90
47716;BME280;33476;50.984;3.538;2022-12-29T10:07:45;100471.50;;;12.79;66.13
47716;BME280;33476;50.984;3.538;2022-12-29T10:16:11;100476.16;;;12.88;64.77
47716;BME280;33476;50.984;3.538;2022-12-29T10:18:56;100488.72;;;12.83;65.00
47716;BME280;33476;50.984;3.538;2022-12-29T10:21:46;100482.34;;;12.73;65.25
47716;BME280;33476;50.984;3.538;2022-12-29T10:24:13;100478.63;;;12.77;65.01
47716;BME280;33476;50.984;3.538;2022-12-29T10:26:41;100497.44;;;12.70;64.72
47716;BME280;33476;50.984;3.538;2022-12-29T10:29:18;100494.44;;;12.61;64.62
47716;BME280;33476;50.984;3.538;2022-12-29T10:31:48;100480.69;;;12.58;65.02
47716;BME280;33476;50.984;3.538;2022-12-29T10:34:26;100485.84;;;12.59;64.97
47716;BME280;33476;50.984;3.538;2022-12-29T10:36:58;100492.06;;;12.85;64.64
47716;BME280;33476;50.984;3.538;2022-12-29T10:39:33;100489.38;;;13.28;63.13
47716;BME280;33476;50.984;3.538;2022-12-29T10:42:09;100487.41;;;13.59;61.99
47716;BME280;33476;50.984;3.538;2022-12-29T10:44:36;100494.88;;;13.77;61.49
47716;BME280;33476;50.984;3.538;2022-12-29T10:47:05;100508.50;;;13.57;61.52
47716;BME280;33476;50.984;3.538;2022-12-29T10:49:38;100508.47;;;13.30;62.30
47716;BME280;33476;50.984;3.538;2022-12-29T10:52:06;100510.66;;;13.09;62.86
47716;BME280;33476;50.984;3.538;2022-12-29T10:54:42;100512.56;;;12.93;63.13
47716;BME280;33476;50.984;3.538;2022-12-29T10:57:36;100509.66;;;12.98;63.18
47716;BME280;33476;50.984;3.538;2022-12-29T11:00:19;100518.28;;;13.00;62.86
47716;BME280;33476;50.984;3.538;2022-12-29T11:05:32;100521.75;;;13.00;62.73
47716;BME280;33476;50.984;3.538;2022-12-29T11:08:01;100529.00;;;13.24;62.31
47716;BME280;33476;50.984;3.538;2022-12-29T11:10:37;100521.84;;;13.40;61.83
47716;BME280;33476;50.984;3.538;2022-12-29T11:13:25;100520.66;;;13.58;61.53
47716;BME280;33476;50.984;3.538;2022-12-29T11:15:50;100535.41;;;13.46;61.49
47716;BME280;33476;50.984;3.538;2022-12-29T11:18:19;100531.72;;;13.22;62.13
47716;BME280;33476;50.984;3.538;2022-12-29T11:20:45;100542.31;;;13.06;62.55
47716;BME280;33476;50.984;3.538;2022-12-29T11:23:26;100554.25;;;12.83;63.40
47716;BME280;33476;50.984;3.538;2022-12-29T11:28:36;100549.16;;;12.80;63.89
47716;BME280;33476;50.984;3.538;2022-12-29T11:31:04;100581.47;;;12.81;63.83
47716;BME280;33476;50.984;3.538;2022-12-29T11:33:30;100574.63;;;12.78;64.53
47716;BME280;33476;50.984;3.538;2022-12-29T11:36:09;100568.91;;;12.72;65.14
47716;BME280;33476;50.984;3.538;2022-12-29T11:38:40;100565.47;;;12.71;65.18
47716;BME280;33476;50.984;3.538;2022-12-29T11:41:11;100558.41;;;12.57;65.63
47716;BME280;33476;50.984;3.538;2022-12-29T11:43:37;100565.53;;;12.55;65.92
47716;BME280;33476;50.984;3.538;2022-12-29T11:46:05;100556.94;;;12.53;66.00
47716;BME280;33476;50.984;3.538;2022-12-29T11:48:37;100555.34;;;12.51;66.68
47716;BME280;33476;50.984;3.538;2022-12-29T11:51:04;100560.59;;;12.51;66.99
47716;BME280;33476;50.984;3.538;2022-12-29T11:53:42;100553.09;;;12.45;67.27
47716;BME280;33476;50.984;3.538;2022-12-29T11:56:10;100556.56;;;12.45;67.36
47716;BME280;33476;50.984;3.538;2022-12-29T11:58:38;100555.63;;;12.46;67.54
47716;BME280;33476;50.984;3.538;2022-12-29T12:01:07;100556.56;;;12.45;67.97
47716;BME280;33476;50.984;3.538;2022-12-29T12:03:38;100560.22;;;12.43;67.83
47716;BME280;33476;50.984;3.538;2022-12-29T12:06:12;100554.59;;;12.34;67.68
47716;BME280;33476;50.984;3.538;2022-12-29T12:08:53;100552.22;;;12.30;67.68
47716;BME280;33476;50.984;3.538;2022-12-29T12:11:32;100542.59;;;12.30;67.77
47716;BME280;33476;50.984;3.538;2022-12-29T12:16:34;100559.13;;;12.31;67.30
47716;BME280;33476;50.984;3.538;2022-12-29T12:19:21;100561.66;;;12.32;67.30
47716;BME280;33476;50.984;3.538;2022-12-29T12:21:55;100565.50;;;12.41;66.88
47716;BME280;33476;50.984;3.538;2022-12-29T12:24:47;100571.22;;;12.48;66.66
47716;BME280;33476;50.984;3.538;2022-12-29T12:29:56;100579.31;;;12.73;65.15
47716;BME280;33476;50.984;3.538;2022-12-29T12:32:25;100582.78;;;12.88;65.12
47716;BME280;33476;50.984;3.538;2022-12-29T12:34:54;100592.25;;;12.76;64.56
47716;BME280;33476;50.984;3.538;2022-12-29T12:40:33;100587.78;;;12.48;65.14
47716;BME280;33476;50.984;3.538;2022-12-29T12:51:32;100589.91;;;12.27;65.52
47716;BME280;33476;50.984;3.538;2022-12-29T12:59:33;100600.47;;;12.26;66.16
47716;BME280;33476;50.984;3.538;2022-12-29T13:07:35;100594.56;;;12.22;66.11
47716;BME280;33476;50.984;3.538;2022-12-29T13:21:03;100623.09;;;11.97;65.55
47716;BME280;33476;50.984;3.538;2022-12-29T13:23:46;100612.41;;;11.86;65.63
47716;BME280;33476;50.984;3.538;2022-12-29T13:26:20;100610.44;;;11.89;65.42
47716;BME280;33476;50.984;3.538;2022-12-29T13:28:53;100603.78;;;11.84;65.41
47716;BME280;33476;50.984;3.538;2022-12-29T13:36:48;100596.09;;;11.80;65.27
47716;BME280;33476;50.984;3.538;2022-12-29T13:39:23;100621.47;;;11.78;65.24
47716;BME280;33476;50.984;3.538;2022-12-29T13:41:55;100614.91;;;11.87;65.04
47716;BME280;33476;50.984;3.538;2022-12-29T13:44:25;100621.19;;;11.85;64.45
47716;BME280;33476;50.984;3.538;2022-12-29T13:46:52;100632.22;;;11.90;64.34
47716;BME280;33476;50.984;3.538;2022-12-29T13:49:21;100630.44;;;11.90;63.90
47716;BME280;33476;50.984;3.538;2022-12-29T13:51:57;100632.72;;;11.80;64.13
47716;BME280;33476;50.984;3.538;2022-12-29T13:54:35;100636.19;;;11.81;63.99
47716;BME280;33476;50.984;3.538;2022-12-29T13:57:31;100637.03;;;11.81;64.13
47716;BME280;33476;50.984;3.538;2022-12-29T14:00:20;100627.22;;;11.69;64.19
47716;BME280;33476;50.984;3.538;2022-12-29T14:03:40;100626.53;;;11.66;64.17
47716;BME280;33476;50.984;3.538;2022-12-29T14:05:45;100645.53;;;11.69;63.85
47716;BME280;33476;50.984;3.538;2022-12-29T14:08:27;100636.75;;;11.70;63.91
47716;BME280;33476;50.984;3.538;2022-12-29T14:10:52;100641.72;;;11.75;63.91
47716;BME280;33476;50.984;3.538;2022-12-29T14:13:25;100649.34;;;11.64;64.13
47716;BME280;33476;50.984;3.538;2022-12-29T14:15:55;100647.75;;;11.61;63.85
47716;BME280;33476;50.984;3.538;2022-12-29T14:18:34;100656.44;;;11.62;63.93
47716;BME280;33476;50.984;3.538;2022-12-29T14:21:20;100646.56;;;11.67;63.86
47716;BME280;33476;50.984;3.538;2022-12-29T14:23:50;100647.22;;;11.70;63.34
47716;BME280;33476;50.984;3.538;2022-12-29T14:26:38;100644.63;;;11.70;63.40
47716;BME280;33476;50.984;3.538;2022-12-29T14:29:41;100641.91;;;11.72;63.28
47716;BME280;33476;50.984;3.538;2022-12-29T14:32:01;100644.88;;;11.81;62.55
47716;BME280;33476;50.984;3.538;2022-12-29T14:34:29;100653.56;;;11.82;62.67
47716;BME280;33476;50.984;3.538;2022-12-29T14:37:00;100655.34;;;11.81;62.14
47716;BME280;33476;50.984;3.538;2022-12-29T14:39:30;100649.78;;;11.88;62.67